createdAt,value
2022-10-06T00:01:30.993Z,9.41
2022-10-06T00:03:58.680Z,9.40
2022-10-06T00:06:26.304Z,9.37
2022-10-06T00:08:53.966Z,9.33
2022-10-06T00:11:22.493Z,9.31
2022-10-06T00:13:50.193Z,9.29
2022-10-06T00:16:21.856Z,9.28
2022-10-06T00:18:49.996Z,9.26
2022-10-06T00:21:17.942Z,9.27
2022-10-06T00:23:45.848Z,9.27
2022-10-06T00:26:17.560Z,9.26
2022-10-06T00:28:49.160Z,9.25
2022-10-06T00:31:19.724Z,9.24
2022-10-06T00:33:49.759Z,9.25
2022-10-06T00:36:17.455Z,9.24
2022-10-06T00:38:45.917Z,9.25
2022-10-06T00:41:14.709Z,9.27
2022-10-06T00:43:57.110Z,9.29
2022-10-06T00:46:25.129Z,9.31
2022-10-06T00:48:55.909Z,9.31
2022-10-06T00:51:23.922Z,9.30
2022-10-06T00:53:51.742Z,9.30
2022-10-06T00:56:19.623Z,9.30
2022-10-06T00:58:49.023Z,9.28
2022-10-06T01:01:17.025Z,9.28
2022-10-06T01:03:55.189Z,9.26
2022-10-06T01:06:23.101Z,9.25
2022-10-06T01:08:51.380Z,9.24
2022-10-06T01:11:19.108Z,9.22
2022-10-06T01:13:46.980Z,9.20
2022-10-06T01:16:23.399Z,9.18
2022-10-06T01:18:53.350Z,9.16
2022-10-06T01:21:42.018Z,9.16
2022-10-06T01:24:09.834Z,9.17
2022-10-06T01:26:40.505Z,9.18
2022-10-06T01:29:08.542Z,9.20
2022-10-06T01:31:36.535Z,9.21
2022-10-06T01:34:05.207Z,9.20
2022-10-06T01:36:32.864Z,9.21
2022-10-06T01:39:00.556Z,9.21
2022-10-06T01:41:28.388Z,9.19
2022-10-06T01:43:56.218Z,9.19
2022-10-06T01:46:23.964Z,9.19
2022-10-06T01:48:51.670Z,9.20
2022-10-06T01:51:19.698Z,9.20
2022-10-06T01:53:47.409Z,9.20
2022-10-06T01:56:15.518Z,9.20
2022-10-06T01:58:43.568Z,9.18
2022-10-06T02:01:12.020Z,9.16
2022-10-06T02:03:40.149Z,9.14
2022-10-06T02:06:09.682Z,9.13
2022-10-06T02:08:38.087Z,9.10
2022-10-06T02:11:08.070Z,9.06
2022-10-06T02:13:37.617Z,9.02
2022-10-06T02:16:09.361Z,9.00
2022-10-06T02:18:37.362Z,8.98
2022-10-06T02:21:05.480Z,8.94
2022-10-06T02:23:33.786Z,8.88
2022-10-06T02:26:03.360Z,8.82
2022-10-06T02:28:32.104Z,8.77
2022-10-06T02:31:02.656Z,8.79
2022-10-06T02:33:30.731Z,8.78
2022-10-06T02:35:59.226Z,8.80
2022-10-06T02:38:30.663Z,8.85
2022-10-06T02:41:00.266Z,8.92
2022-10-06T02:43:30.106Z,8.99
2022-10-06T02:46:00.351Z,9.07
2022-10-06T02:48:29.371Z,9.18
2022-10-06T02:50:58.296Z,9.28
2022-10-06T02:53:26.232Z,9.39
2022-10-06T02:55:57.942Z,9.50
2022-10-06T02:58:26.091Z,9.60
2022-10-06T03:00:54.283Z,9.68
2022-10-06T03:03:22.043Z,9.78
2022-10-06T03:05:50.350Z,9.84
2022-10-06T03:08:18.095Z,9.93
2022-10-06T03:10:46.937Z,10.07
2022-10-06T03:13:14.661Z,10.18
2022-10-06T03:15:42.549Z,10.32
2022-10-06T03:18:10.321Z,10.45
2022-10-06T03:20:37.931Z,10.60
2022-10-06T03:23:07.408Z,10.74
2022-10-06T03:25:38.301Z,10.90
2022-10-06T03:28:06.404Z,11.03
2022-10-06T03:30:34.430Z,11.15
2022-10-06T03:33:02.437Z,11.26
2022-10-06T03:35:30.413Z,11.38
2022-10-06T03:37:59.040Z,11.48
2022-10-06T03:40:27.593Z,11.58
2022-10-06T03:42:55.626Z,11.70
2022-10-06T03:45:23.669Z,11.83
2022-10-06T03:47:51.313Z,11.92
2022-10-06T03:50:18.951Z,12.00
2022-10-06T03:52:51.407Z,12.08
2022-10-06T03:55:20.534Z,12.15
2022-10-06T03:57:48.224Z,12.22
2022-10-06T04:00:16.010Z,12.30
2022-10-06T04:02:44.194Z,12.38
2022-10-06T04:05:11.942Z,12.44
2022-10-06T04:07:39.636Z,12.48
2022-10-06T04:10:07.848Z,12.53
2022-10-06T04:12:36.291Z,12.59
2022-10-06T04:15:04.122Z,12.65
2022-10-06T04:17:31.820Z,12.71
2022-10-06T04:19:59.528Z,12.75
2022-10-06T04:22:27.411Z,12.80
2022-10-06T04:24:55.046Z,12.86
2022-10-06T04:27:28.977Z,12.91
2022-10-06T04:30:01.964Z,12.95
2022-10-06T04:32:30.777Z,12.98
2022-10-06T04:34:58.428Z,13.02
2022-10-06T04:37:28.461Z,13.06
2022-10-06T04:39:56.375Z,13.06
2022-10-06T04:42:24.688Z,13.07
2022-10-06T04:44:52.373Z,13.09
2022-10-06T04:47:20.059Z,13.10
2022-10-06T04:49:49.254Z,13.06
2022-10-06T04:52:16.953Z,12.98
2022-10-06T04:54:44.638Z,12.92
2022-10-06T04:57:12.930Z,12.86
2022-10-06T05:00:05.938Z,12.79
2022-10-06T05:02:37.258Z,12.73
2022-10-06T05:05:07.985Z,12.65
2022-10-06T05:07:35.964Z,12.56
2022-10-06T05:10:03.778Z,12.50
2022-10-06T05:12:32.424Z,12.44
2022-10-06T05:15:00.195Z,12.38
2022-10-06T05:17:27.972Z,12.34
2022-10-06T05:19:55.696Z,12.31
2022-10-06T05:22:23.716Z,12.29
2022-10-06T05:24:53.879Z,12.30
2022-10-06T05:27:21.728Z,12.29
2022-10-06T05:29:49.423Z,12.30
2022-10-06T05:32:17.298Z,12.30
2022-10-06T05:34:45.151Z,12.32
2022-10-06T05:37:12.823Z,12.33
2022-10-06T05:39:40.624Z,12.36
2022-10-06T05:42:08.329Z,12.38
2022-10-06T05:44:36.048Z,12.43
2022-10-06T05:47:08.418Z,12.50
2022-10-06T05:49:36.365Z,12.60
2022-10-06T05:52:05.439Z,12.73
2022-10-06T05:54:35.464Z,12.88
2022-10-06T05:57:03.160Z,13.02
2022-10-06T05:59:33.024Z,13.19
2022-10-06T06:02:01.822Z,13.36
2022-10-06T06:04:35.045Z,13.52
2022-10-06T06:07:03.008Z,13.64
2022-10-06T06:09:30.799Z,13.75
2022-10-06T06:12:00.793Z,13.84
2022-10-06T06:14:58.170Z,13.97
2022-10-06T06:17:33.393Z,14.05
2022-10-06T06:20:02.938Z,14.12
2022-10-06T06:22:31.026Z,14.18
2022-10-06T06:24:59.158Z,14.24
2022-10-06T06:27:26.921Z,14.29
2022-10-06T06:29:54.755Z,14.37
2022-10-06T06:32:22.655Z,14.42
2022-10-06T06:34:52.860Z,14.47
2022-10-06T06:37:20.913Z,14.54
2022-10-06T06:39:49.102Z,14.59
2022-10-06T06:42:17.459Z,14.62
2022-10-06T06:44:48.721Z,14.64
2022-10-06T06:47:25.984Z,14.64
2022-10-06T06:49:55.092Z,14.65
2022-10-06T06:52:26.181Z,14.68
2022-10-06T06:54:54.313Z,14.72
2022-10-06T06:57:22.935Z,14.76
2022-10-06T06:59:52.613Z,14.81
2022-10-06T07:02:20.830Z,14.84
2022-10-06T07:04:49.458Z,14.89
2022-10-06T07:07:21.236Z,14.97
2022-10-06T07:09:49.293Z,15.02
2022-10-06T07:12:18.955Z,15.07
2022-10-06T07:15:10.717Z,15.10
2022-10-06T07:18:00.073Z,15.13
2022-10-06T07:20:47.806Z,15.15
2022-10-06T07:23:36.591Z,15.16
2022-10-06T07:26:07.464Z,15.20
2022-10-06T07:28:35.394Z,15.20
2022-10-06T07:31:03.662Z,15.20
2022-10-06T07:33:33.422Z,15.21
2022-10-06T07:36:04.508Z,15.21
2022-10-06T07:38:33.769Z,15.23
2022-10-06T07:43:53.956Z,15.31
2022-10-06T07:46:22.375Z,15.33
2022-10-06T07:49:09.946Z,15.41
2022-10-06T07:51:37.664Z,15.49
2022-10-06T07:54:05.569Z,15.58
2022-10-06T07:56:52.578Z,15.66
2022-10-06T07:59:20.242Z,15.69
2022-10-06T08:01:50.179Z,15.73
2022-10-06T08:04:17.938Z,15.77
2022-10-06T08:06:47.767Z,15.84
2022-10-06T08:09:15.773Z,15.91
2022-10-06T08:11:45.153Z,15.95
2022-10-06T08:14:15.161Z,15.98
2022-10-06T08:16:42.818Z,16.05
2022-10-06T08:19:11.712Z,16.11
2022-10-06T08:21:40.483Z,16.14
2022-10-06T08:24:10.909Z,16.18
2022-10-06T08:26:38.884Z,16.20
2022-10-06T08:29:06.578Z,16.21
2022-10-06T08:31:34.324Z,16.24
2022-10-06T08:34:02.096Z,16.27
2022-10-06T08:36:32.212Z,16.32
2022-10-06T08:39:01.307Z,16.42
2022-10-06T08:41:39.805Z,16.54
2022-10-06T08:44:18.658Z,16.66
2022-10-06T08:46:56.134Z,16.78
2022-10-06T08:49:27.390Z,16.90
2022-10-06T08:51:57.742Z,16.94
2022-10-06T08:54:30.046Z,16.98
2022-10-06T08:57:05.924Z,17.04
2022-10-06T08:59:35.162Z,17.12
2022-10-06T09:02:06.913Z,17.17
2022-10-06T09:04:34.686Z,17.25
2022-10-06T09:07:16.802Z,17.34
2022-10-06T09:10:03.421Z,17.37
2022-10-06T09:12:35.925Z,17.38
2022-10-06T09:15:22.276Z,17.42
2022-10-06T09:17:55.344Z,17.38
2022-10-06T09:20:22.968Z,17.36
2022-10-06T09:22:51.344Z,17.21
2022-10-06T09:25:22.861Z,17.08
2022-10-06T09:27:53.273Z,17.02
2022-10-06T09:30:20.929Z,17.14
2022-10-06T09:32:53.806Z,17.23
2022-10-06T09:35:23.269Z,17.29
2022-10-06T09:38:08.157Z,17.31
2022-10-06T09:40:38.768Z,17.28
2022-10-06T09:43:22.749Z,17.23
2022-10-06T09:45:51.734Z,17.24
2022-10-06T09:48:24.972Z,17.25
2022-10-06T09:51:11.855Z,17.30
2022-10-06T09:53:39.992Z,17.34
2022-10-06T09:56:21.518Z,17.39
2022-10-06T09:58:56.659Z,17.40
2022-10-06T10:01:28.687Z,17.34
2022-10-06T10:04:20.590Z,17.35
2022-10-06T10:06:48.582Z,17.41
2022-10-06T10:09:21.762Z,17.54
2022-10-06T10:12:29.916Z,17.69
2022-10-06T10:14:59.616Z,17.87
2022-10-06T10:17:44.783Z,17.93
2022-10-06T10:20:25.065Z,17.89
2022-10-06T10:22:53.406Z,17.74
2022-10-06T10:25:26.924Z,17.63
2022-10-06T10:28:02.093Z,17.51
2022-10-06T10:30:32.457Z,17.34
2022-10-06T10:33:00.452Z,17.21
2022-10-06T10:35:33.987Z,17.10
2022-10-06T10:38:05.173Z,16.96
2022-10-06T10:41:02.222Z,16.80
2022-10-06T10:43:42.395Z,16.68
2022-10-06T10:46:21.692Z,16.67
2022-10-06T10:48:52.150Z,16.67
2022-10-06T10:51:22.595Z,16.78
2022-10-06T10:53:58.696Z,16.94
2022-10-06T10:56:27.143Z,17.12
2022-10-06T10:59:07.309Z,17.36
2022-10-06T11:01:41.834Z,17.58
2022-10-06T11:04:11.501Z,17.77
2022-10-06T11:06:39.240Z,17.95
2022-10-06T11:09:15.984Z,18.15
2022-10-06T11:11:45.010Z,18.23
2022-10-06T11:14:23.770Z,18.26
2022-10-06T11:17:04.385Z,18.36
2022-10-06T11:19:42.646Z,18.41
2022-10-06T11:22:20.915Z,18.39
2022-10-06T11:24:59.923Z,18.34
2022-10-06T11:27:54.653Z,18.29
2022-10-06T11:30:26.602Z,18.23
2022-10-06T11:33:03.470Z,18.24
2022-10-06T11:35:35.395Z,18.24
2022-10-06T11:38:26.145Z,18.23
2022-10-06T11:40:53.805Z,18.24
2022-10-06T11:43:34.053Z,18.17
2022-10-06T11:46:04.943Z,18.19
2022-10-06T11:48:33.208Z,18.26
2022-10-06T11:51:20.888Z,18.25
2022-10-06T11:53:48.653Z,18.21
2022-10-06T11:56:19.042Z,18.18
2022-10-06T11:58:55.699Z,18.21
2022-10-06T12:01:32.733Z,18.26
2022-10-06T12:04:04.001Z,18.25
2022-10-06T12:06:46.992Z,18.16
2022-10-06T12:09:23.830Z,18.16
2022-10-06T12:11:52.639Z,18.18
2022-10-06T12:17:26.237Z,18.12
2022-10-06T12:20:12.972Z,18.10
2022-10-06T12:22:40.567Z,18.07
2022-10-06T12:25:11.268Z,18.07
2022-10-06T12:27:54.595Z,18.08
2022-10-06T12:30:30.849Z,18.09
2022-10-06T12:33:00.308Z,18.09
2022-10-06T12:35:30.316Z,18.11
2022-10-06T12:38:21.341Z,18.08
2022-10-06T12:40:50.126Z,18.12
2022-10-06T12:43:17.844Z,18.17
2022-10-06T12:46:01.267Z,18.19
2022-10-06T12:48:28.923Z,18.19
2022-10-06T12:51:25.954Z,18.20
2022-10-06T12:54:06.057Z,18.15
2022-10-06T12:56:35.092Z,18.17
2022-10-06T12:59:21.551Z,18.23
2022-10-06T13:01:50.713Z,18.29
2022-10-06T13:04:34.743Z,18.30
2022-10-06T13:07:22.030Z,18.30
2022-10-06T13:09:51.781Z,18.26
2022-10-06T13:12:36.806Z,18.28
2022-10-06T13:15:11.221Z,18.25
2022-10-06T13:17:52.958Z,18.18
2022-10-06T13:20:23.095Z,18.13
2022-10-06T13:23:17.104Z,18.14
2022-10-06T13:25:47.524Z,18.14
2022-10-06T13:28:22.819Z,18.04
2022-10-06T13:30:51.745Z,17.99
2022-10-06T13:33:19.494Z,17.99
2022-10-06T13:35:49.756Z,17.92
2022-10-06T13:38:17.526Z,17.92
2022-10-06T13:40:46.200Z,17.91
2022-10-06T13:43:17.175Z,17.92
2022-10-06T13:45:46.367Z,17.95
2022-10-06T13:48:16.299Z,17.96
2022-10-06T13:50:49.152Z,17.98
2022-10-06T13:53:25.755Z,17.92
2022-10-06T13:55:54.044Z,17.87
2022-10-06T13:58:24.874Z,17.89
2022-10-06T14:00:52.816Z,17.93
2022-10-06T14:03:25.275Z,17.98
2022-10-06T14:06:05.054Z,18.00
2022-10-06T14:08:33.293Z,17.96
2022-10-06T14:11:02.251Z,17.88
2022-10-06T14:13:32.370Z,17.88
2022-10-06T14:16:02.146Z,17.87
2022-10-06T14:18:35.880Z,17.85
2022-10-06T14:21:26.834Z,17.83
2022-10-06T14:23:55.110Z,17.80
2022-10-06T14:26:27.545Z,17.72
2022-10-06T14:28:55.964Z,17.67
2022-10-06T14:31:25.362Z,17.65
2022-10-06T14:33:53.939Z,17.57
2022-10-06T14:36:23.511Z,17.50
2022-10-06T14:38:51.755Z,17.46
2022-10-06T14:41:20.127Z,17.43
2022-10-06T14:43:48.102Z,17.39
2022-10-06T14:46:16.056Z,17.31
2022-10-06T14:48:43.776Z,17.25
2022-10-06T14:51:11.433Z,17.21
2022-10-06T14:53:39.607Z,17.15
2022-10-06T14:56:10.727Z,17.14
2022-10-06T14:58:39.739Z,17.10
2022-10-06T15:01:08.174Z,17.08
2022-10-06T15:03:36.323Z,17.09
2022-10-06T15:06:27.108Z,17.04
2022-10-06T15:08:58.659Z,16.99
2022-10-06T15:11:27.699Z,16.94
2022-10-06T15:13:57.344Z,16.91
2022-10-06T15:16:25.929Z,16.85
2022-10-06T15:18:53.674Z,16.79
2022-10-06T15:21:23.415Z,16.71
2022-10-06T15:23:58.292Z,16.75
2022-10-06T15:26:45.467Z,16.76
2022-10-06T15:29:13.549Z,16.66
2022-10-06T15:31:45.750Z,16.57
2022-10-06T15:34:14.431Z,16.50
2022-10-06T15:36:42.755Z,16.42
2022-10-06T15:39:11.986Z,16.34
2022-10-06T15:41:40.498Z,16.28
2022-10-06T15:44:09.102Z,16.23
2022-10-06T15:46:39.614Z,16.16
2022-10-06T15:49:07.447Z,16.07
2022-10-06T15:51:43.063Z,15.99
2022-10-06T15:54:14.855Z,15.88
2022-10-06T15:56:42.582Z,15.77
2022-10-06T15:59:11.454Z,15.64
2022-10-06T16:01:42.296Z,15.54
2022-10-06T16:04:21.554Z,15.42
2022-10-06T16:06:50.413Z,15.31
2022-10-06T16:09:21.068Z,15.17
2022-10-06T16:11:48.810Z,15.08
2022-10-06T16:14:16.668Z,14.95
2022-10-06T16:16:45.001Z,14.82
2022-10-06T16:19:13.082Z,14.69
2022-10-06T16:21:41.096Z,14.55
2022-10-06T16:24:09.381Z,14.42
2022-10-06T16:26:37.160Z,14.27
2022-10-06T16:29:05.441Z,14.09
2022-10-06T16:31:33.216Z,13.91
2022-10-06T16:34:01.209Z,13.74
2022-10-06T16:36:29.053Z,13.55
2022-10-06T16:38:57.310Z,13.38
2022-10-06T16:41:25.188Z,13.19
2022-10-06T16:43:53.607Z,13.02
2022-10-06T16:46:25.532Z,12.83
2022-10-06T16:48:54.748Z,12.64
2022-10-06T16:51:23.480Z,12.46
2022-10-06T16:53:52.386Z,12.30
2022-10-06T16:56:24.912Z,12.14
2022-10-06T16:58:54.106Z,11.97
2022-10-06T17:01:23.186Z,11.82
2022-10-06T17:04:07.749Z,11.65
2022-10-06T17:06:39.241Z,11.47
2022-10-06T17:09:08.390Z,11.30
2022-10-06T17:11:36.189Z,11.17
2022-10-06T17:14:04.604Z,11.03
2022-10-06T17:16:34.461Z,10.86
2022-10-06T17:19:02.839Z,10.69
2022-10-06T17:21:49.604Z,10.56
2022-10-06T17:24:18.687Z,10.45
2022-10-06T17:26:48.510Z,10.35
2022-10-06T17:29:21.505Z,10.25
2022-10-06T17:31:51.016Z,10.15
2022-10-06T17:34:21.948Z,10.06
2022-10-06T17:36:51.901Z,9.97
2022-10-06T17:39:21.541Z,9.89
2022-10-06T17:41:50.510Z,9.80
2022-10-06T17:44:23.289Z,9.70
2022-10-06T17:46:52.547Z,9.57
2022-10-06T17:49:21.291Z,9.40
2022-10-06T17:51:50.265Z,9.27
2022-10-06T17:54:20.263Z,9.16
2022-10-06T17:56:48.959Z,9.08
2022-10-06T17:59:24.611Z,9.04
2022-10-06T18:01:56.300Z,8.98
2022-10-06T18:04:24.757Z,8.95
2022-10-06T18:06:54.089Z,8.91
2022-10-06T18:09:22.365Z,8.88
2022-10-06T18:11:55.564Z,8.83
2022-10-06T18:14:28.116Z,8.78
2022-10-06T18:16:58.431Z,8.73
2022-10-06T18:19:30.274Z,8.69
2022-10-06T18:22:00.676Z,8.66
2022-10-06T18:24:29.688Z,8.61
2022-10-06T18:26:58.560Z,8.55
2022-10-06T18:29:29.158Z,8.51
2022-10-06T18:32:05.127Z,8.47
2022-10-06T18:37:32.620Z,8.31
2022-10-06T18:40:02.514Z,8.25
2022-10-06T18:42:30.344Z,8.18
2022-10-06T18:45:17.044Z,8.09
2022-10-06T18:48:03.755Z,8.02
2022-10-06T18:50:32.402Z,7.95
2022-10-06T18:53:00.199Z,7.86
2022-10-06T18:55:29.899Z,7.80
2022-10-06T18:57:57.879Z,7.73
2022-10-06T19:00:26.152Z,7.69
2022-10-06T19:02:55.626Z,7.63
2022-10-06T19:05:23.705Z,7.59
2022-10-06T19:07:54.364Z,7.55
2022-10-06T19:10:22.424Z,7.52
2022-10-06T19:12:50.181Z,7.50
2022-10-06T19:15:20.991Z,7.46
2022-10-06T19:17:50.129Z,7.44
2022-10-06T19:20:18.811Z,7.42
2022-10-06T19:22:47.847Z,7.38
2022-10-06T19:25:18.899Z,7.34
2022-10-06T19:27:48.401Z,7.32
2022-10-06T19:30:16.588Z,7.31
2022-10-06T19:32:44.415Z,7.27
2022-10-06T19:35:12.122Z,7.23
2022-10-06T19:37:40.677Z,7.16
2022-10-06T19:40:11.281Z,7.08
2022-10-06T19:42:48.424Z,7.01
2022-10-06T19:45:17.292Z,6.89
2022-10-06T19:47:46.226Z,6.82
2022-10-06T19:50:15.349Z,6.78
2022-10-06T19:52:43.033Z,6.74
2022-10-06T19:55:10.875Z,6.68
2022-10-06T19:57:38.495Z,6.65
2022-10-06T20:00:07.001Z,6.59
2022-10-06T20:02:43.403Z,6.52
2022-10-06T20:05:13.115Z,6.47
2022-10-06T20:07:41.689Z,6.45
2022-10-06T20:10:11.901Z,6.41
2022-10-06T20:12:41.629Z,6.37
2022-10-06T20:15:10.284Z,6.31
2022-10-06T20:17:37.958Z,6.27
2022-10-06T20:20:05.882Z,6.20
2022-10-06T20:22:33.601Z,6.17
2022-10-06T20:25:02.613Z,6.17
2022-10-06T20:27:30.413Z,6.15
2022-10-06T20:29:58.416Z,6.16
2022-10-06T20:32:26.290Z,6.16
2022-10-06T20:34:53.982Z,6.12
2022-10-06T20:37:21.599Z,6.07
2022-10-06T20:40:08.219Z,6.04
2022-10-06T20:42:35.881Z,6.00
2022-10-06T20:45:03.606Z,5.96
2022-10-06T20:47:31.241Z,5.92
2022-10-06T20:49:58.880Z,5.87
2022-10-06T20:52:26.516Z,5.83
2022-10-06T20:54:54.238Z,5.85
2022-10-06T20:57:21.894Z,5.88
2022-10-06T20:59:49.626Z,5.86
2022-10-06T21:02:17.457Z,5.84
2022-10-06T21:04:45.264Z,5.81
2022-10-06T21:07:13.122Z,5.79
2022-10-06T21:09:40.855Z,5.78
2022-10-06T21:12:08.682Z,5.77
2022-10-06T21:14:37.708Z,5.73
2022-10-06T21:17:06.010Z,5.70
2022-10-06T21:19:38.120Z,5.65
2022-10-06T21:22:06.243Z,5.58
2022-10-06T21:24:34.122Z,5.50
2022-10-06T21:27:02.205Z,5.45
2022-10-06T21:29:29.856Z,5.39
2022-10-06T21:31:57.653Z,5.34
2022-10-06T21:34:25.472Z,5.29
2022-10-06T21:36:53.179Z,5.26
2022-10-06T21:39:20.945Z,5.23
2022-10-06T21:41:48.589Z,5.20
2022-10-06T21:44:17.757Z,5.17
2022-10-06T21:46:46.664Z,5.12
2022-10-06T21:49:16.161Z,5.07
2022-10-06T21:51:46.417Z,5.06
2022-10-06T21:54:14.545Z,5.06
2022-10-06T21:56:42.795Z,5.08
2022-10-06T21:59:11.134Z,5.06
2022-10-06T22:01:43.018Z,5.04
2022-10-06T22:04:13.112Z,5.01
2022-10-06T22:06:43.497Z,5.01
2022-10-06T22:09:15.362Z,4.99
2022-10-06T22:11:43.119Z,4.97
2022-10-06T22:14:11.943Z,4.96
2022-10-06T22:16:40.758Z,4.97
2022-10-06T22:19:10.158Z,4.97
2022-10-06T22:21:39.441Z,4.95
2022-10-06T22:24:08.796Z,4.95
2022-10-06T22:26:37.679Z,4.88
2022-10-06T22:29:07.081Z,4.82
2022-10-06T22:31:38.159Z,4.76
2022-10-06T22:34:06.232Z,4.68
2022-10-06T22:36:34.237Z,4.63
2022-10-06T22:39:02.104Z,4.57
2022-10-06T22:41:30.042Z,4.54
2022-10-06T22:43:58.634Z,4.53
2022-10-06T22:46:27.467Z,4.51
2022-10-06T22:48:55.286Z,4.48
2022-10-06T22:51:23.477Z,4.48
2022-10-06T22:53:57.237Z,4.46
2022-10-06T22:56:27.547Z,4.45
2022-10-06T22:58:55.601Z,4.44
2022-10-06T23:01:23.284Z,4.43
2022-10-06T23:03:53.745Z,4.42
2022-10-06T23:06:21.484Z,4.41
2022-10-06T23:08:49.338Z,4.39
2022-10-06T23:11:18.534Z,4.40
2022-10-06T23:13:46.778Z,4.37
2022-10-06T23:16:15.953Z,4.34
2022-10-06T23:18:44.518Z,4.33
2022-10-06T23:21:19.431Z,4.34
2022-10-06T23:23:52.074Z,4.35
2022-10-06T23:26:20.915Z,4.29
2022-10-06T23:28:53.031Z,4.24
2022-10-06T23:31:20.943Z,4.19
2022-10-06T23:33:49.367Z,4.16
2022-10-06T23:36:18.068Z,4.11
2022-10-06T23:38:46.912Z,4.06
2022-10-06T23:41:14.719Z,4.01
2022-10-06T23:43:42.776Z,3.97
2022-10-06T23:46:10.749Z,3.91
2022-10-06T23:48:38.745Z,3.84
2022-10-06T23:51:08.236Z,3.81
2022-10-06T23:53:36.320Z,3.77
2022-10-06T23:56:04.760Z,3.76
2022-10-06T23:58:32.765Z,3.76
